Time;durP1;ratioP1;P1;durP2;ratioP2;P2;SDS_P1;SDS_P2;PMS_P1;PMS_P2;Temp;Humidity;BMP_temperature;BMP_pressure;BME280_temperature;BME280_humidity;BME280_pressure;Samples;Min_cycle;Max_cycle;Signal;HPM_P1;HPM_P2
2024/04/23 00:01:29;;;;;;;0.03;0.03;;;;;;;;;;5168595;27;20023;-87
2024/04/23 00:03:55;;;;;;;0.10;0.10;;;;;;;;;;5149188;27;20000;-87
2024/04/23 00:06:21;;;;;;;0.10;0.10;;;;;;;;;;5175436;27;20008;-87
2024/04/23 00:08:47;;;;;;;0.00;0.00;;;;;;;;;;5175506;27;20012;-87
2024/04/23 00:11:12;;;;;;;0.10;0.10;;;;;;;;;;5141560;27;20004;-86
2024/04/23 00:13:38;;;;;;;0.00;0.00;;;;;;;;;;5147215;27;20378;-87
2024/04/23 00:16:04;;;;;;;0.00;0.00;;;1.90;99.90;;;;;;5145568;27;20036;-88
2024/04/23 00:18:30;;;;;;;0.10;0.10;;;1.90;99.90;;;;;;5170695;27;20001;-87
2024/04/23 00:20:56;;;;;;;0.10;0.10;;;1.90;99.90;;;;;;5148188;27;20016;-87
2024/04/23 00:23:22;;;;;;;0.10;0.10;;;1.90;99.90;;;;;;5176921;27;20357;-87
2024/04/23 00:25:47;;;;;;;0.00;0.00;;;1.80;99.90;;;;;;5165993;27;20213;-86
2024/04/23 00:28:13;;;;;;;0.10;0.10;;;;;;;;;;5148297;27;20010;-87
2024/04/23 00:30:39;;;;;;;0.00;0.00;;;1.80;99.90;;;;;;5142057;27;20031;-87
2024/04/23 00:33:08;;;;;;;0.00;0.00;;;;;;;;;;5149197;27;20409;-87
2024/04/23 00:35:34;;;;;;;0.10;0.10;;;1.70;99.90;;;;;;5147345;27;20005;-87
2024/04/23 00:38:00;;;;;;;0.00;0.00;;;;;;;;;;5145353;27;20005;-87
2024/04/23 00:40:29;;;;;;;0.00;0.00;;;1.70;99.90;;;;;;5174091;27;20468;-87
2024/04/23 00:42:55;;;;;;;0.10;0.10;;;1.70;99.90;;;;;;5172056;27;20351;-87
2024/04/23 00:45:32;;;;;;;0.00;0.00;;;1.60;99.90;;;;;;5160396;27;20087;-87
2024/04/23 00:47:58;;;;;;;0.10;0.10;;;;;;;;;;5148859;27;20033;-87
2024/04/23 00:50:25;;;;;;;0.10;0.10;;;1.60;99.90;;;;;;5169244;27;20008;-87
2024/04/23 00:52:51;;;;;;;0.00;0.00;;;;;;;;;;5173540;27;20161;-86
2024/04/23 00:55:16;;;;;;;0.00;0.00;;;1.60;99.90;;;;;;5171397;27;20143;-87
2024/04/23 00:57:43;;;;;;;0.00;0.00;;;;;;;;;;5180043;27;20011;-87
2024/04/23 01:00:09;;;;;;;0.10;0.10;;;;;;;;;;5160304;27;20011;-87
2024/04/23 01:02:35;;;;;;;0.10;0.10;;;;;;;;;;5161346;27;20009;-87
2024/04/23 01:05:01;;;;;;;0.10;0.10;;;;;;;;;;5171762;27;20003;-87
2024/04/23 01:07:27;;;;;;;0.10;0.10;;;;;;;;;;5145986;27;20031;-87
2024/04/23 01:09:53;;;;;;;0.10;0.10;;;;;;;;;;5150358;27;20012;-88
2024/04/23 01:12:18;;;;;;;0.00;0.00;;;1.70;99.90;;;;;;5145327;27;20060;-87
2024/04/23 01:14:45;;;;;;;0.00;0.00;;;1.60;99.90;;;;;;5143356;27;20005;-87
2024/04/23 01:17:12;;;;;;;0.00;0.00;;;;;;;;;;5148249;27;20004;-86
2024/04/23 01:19:42;;;;;;;0.10;0.10;;;1.60;99.90;;;;;;5150409;27;20354;-87
2024/04/23 01:22:18;;;;;;;0.00;0.00;;;1.50;99.90;;;;;;5141610;27;20345;-87
2024/04/23 01:24:51;;;;;;;0.10;0.10;;;1.60;99.90;;;;;;5170598;27;20019;-87
2024/04/23 01:27:17;;;;;;;0.00;0.00;;;;;;;;;;5172705;27;22462;-87
2024/04/23 01:29:44;;;;;;;0.10;0.10;;;1.60;99.90;;;;;;5145913;27;20005;-87
2024/04/23 01:32:10;;;;;;;0.00;0.00;;;1.50;99.90;;;;;;5149000;27;20015;-87
2024/04/23 01:34:37;;;;;;;0.10;0.10;;;1.40;99.90;;;;;;5174175;27;20000;-87
2024/04/23 01:37:05;;;;;;;0.10;0.10;;;1.40;99.90;;;;;;5147235;27;20012;-87
2024/04/23 01:39:31;;;;;;;0.00;0.00;;;1.40;99.90;;;;;;5169972;27;20019;-87
2024/04/23 01:41:58;;;;;;;0.10;0.10;;;1.40;99.90;;;;;;5153810;27;20004;-87
2024/04/23 01:44:25;;;;;;;0.03;0.03;;;1.40;99.90;;;;;;5150501;27;20008;-88
2024/04/23 01:46:51;;;;;;;0.05;0.05;;;1.40;99.90;;;;;;5144096;27;20069;-87
2024/04/23 01:49:17;;;;;;;0.00;0.00;;;1.30;99.90;;;;;;5170650;27;20079;-87
2024/04/23 01:51:43;;;;;;;0.10;0.10;;;;;;;;;;5178237;27;20434;-87
2024/04/23 01:54:09;;;;;;;0.00;0.00;;;;;;;;;;5146870;27;20368;-88
2024/04/23 01:56:35;;;;;;;0.10;0.10;;;;;;;;;;5147844;27;20013;-88
2024/04/23 01:59:01;;;;;;;0.10;0.10;;;;;;;;;;5147407;27;20016;-87
2024/04/23 02:01:29;;;;;;;0.03;0.03;;;1.30;99.90;;;;;;5150900;27;20277;-87
2024/04/23 02:03:55;;;;;;;0.00;0.00;;;;;;;;;;5147636;27;20027;-87
2024/04/23 02:06:21;;;;;;;0.10;0.10;;;1.30;99.90;;;;;;5165023;27;20016;-87
2024/04/23 02:08:48;;;;;;;0.10;0.10;;;;;;;;;;5172947;27;20001;-87
2024/04/23 02:11:14;;;;;;;0.00;0.00;;;;;;;;;;5169853;27;20008;-87
2024/04/23 02:13:39;;;;;;;0.00;0.00;;;1.20;99.90;;;;;;5166622;27;20019;-87
2024/04/23 02:16:05;;;;;;;0.10;0.10;;;1.10;99.90;;;;;;5152401;27;20004;-87
2024/04/23 02:18:31;;;;;;;0.10;0.10;;;1.00;99.90;;;;;;5150870;27;20000;-87
2024/04/23 02:20:56;;;;;;;0.10;0.10;;;;;;;;;;5149242;27;20020;-86
2024/04/23 02:23:22;;;;;;;0.10;0.10;;;;;;;;;;5171111;27;20000;-87
2024/04/23 02:25:48;;;;;;;0.03;0.03;;;1.00;99.90;;;;;;5145799;27;20027;-87
2024/04/23 02:28:14;;;;;;;0.10;0.10;;;;;;;;;;5147277;27;20023;-87
2024/04/23 02:30:40;;;;;;;0.10;0.10;;;;;;;;;;5148917;27;20056;-87
2024/04/23 02:33:10;;;;;;;0.10;0.10;;;;;;;;;;5177141;27;20024;-87
2024/04/23 02:35:36;;;;;;;;;;;0.90;99.90;;;;;;5178259;27;20023;-87
2024/04/23 02:38:01;;;;;;;0.10;0.10;;;;;;;;;;5177391;27;19928;-88
2024/04/23 02:40:27;;;;;;;0.00;0.00;;;1.00;99.90;;;;;;5164260;27;20005;-87
2024/04/23 02:42:53;;;;;;;0.10;0.10;;;;;;;;;;5180092;27;20000;-87
2024/04/23 02:45:19;;;;;;;0.10;0.10;;;;;;;;;;5169219;27;20018;-87
2024/04/23 02:47:45;;;;;;;0.00;0.00;;;;;;;;;;5170033;27;20533;-87
2024/04/23 02:50:10;;;;;;;0.10;0.10;;;0.90;99.90;;;;;;5180785;27;20501;-87
2024/04/23 02:52:36;;;;;;;0.10;0.10;;;;;;;;;;5156163;27;20092;-87
2024/04/23 02:55:02;;;;;;;0.10;0.10;;;;;;;;;;5153968;27;20004;-87
2024/04/23 02:57:28;;;;;;;0.00;0.00;;;;;;;;;;5148640;27;20115;-87
2024/04/23 02:59:54;;;;;;;0.00;0.00;;;;;;;;;;5172021;27;20161;-87
2024/04/23 03:02:20;;;;;;;0.03;0.03;;;;;;;;;;5171779;27;20008;-87
2024/04/23 03:04:46;;;;;;;0.03;0.03;;;;;;;;;;5152349;27;20469;-87
2024/04/23 03:07:12;;;;;;;0.10;0.10;;;;;;;;;;5177014;27;20011;-88
2024/04/23 03:09:38;;;;;;;0.00;0.00;;;;;;;;;;5145857;27;20537;-87
2024/04/23 03:12:04;;;;;;;0.10;0.10;;;;;;;;;;5137382;27;20587;-87
2024/04/23 03:14:30;;;;;;;0.00;0.00;;;;;;;;;;5141740;27;20009;-88
2024/04/23 03:16:56;;;;;;;0.10;0.10;;;;;;;;;;5176991;27;20015;-87
2024/04/23 03:19:22;;;;;;;0.10;0.10;;;;;;;;;;5168748;27;20462;-87
2024/04/23 03:21:48;;;;;;;0.03;0.03;;;;;;;;;;5176649;27;20402;-88
2024/04/23 03:24:14;;;;;;;0.00;0.00;;;;;;;;;;5182832;27;20022;-89
2024/04/23 03:26:40;;;;;;;0.00;0.00;;;;;;;;;;5178837;27;20016;-87
2024/04/23 03:29:06;;;;;;;0.05;0.05;;;;;;;;;;5158271;27;20326;-88
2024/04/23 03:31:32;;;;;;;0.08;0.08;;;;;;;;;;5177748;27;20550;-87
2024/04/23 03:33:58;;;;;;;0.10;0.10;;;;;;;;;;5178711;27;20144;-88
2024/04/23 03:36:24;;;;;;;0.10;0.10;;;;;;;;;;5141182;27;20327;-88
2024/04/23 03:38:49;;;;;;;0.10;0.10;;;0.60;99.90;;;;;;5176243;27;20023;-88
2024/04/23 03:41:15;;;;;;;0.10;0.10;;;;;;;;;;5148289;27;19999;-88
2024/04/23 03:43:41;;;;;;;0.10;0.10;;;;;;;;;;5176456;27;20011;-87
2024/04/23 03:46:07;;;;;;;0.00;0.00;;;;;;;;;;5165436;27;19996;-87
2024/04/23 03:48:33;;;;;;;0.00;0.00;;;;;;;;;;5149397;27;20291;-87
2024/04/23 03:50:59;;;;;;;0.10;0.10;;;;;;;;;;5168030;27;20352;-88
2024/04/23 03:53:25;;;;;;;0.00;0.00;;;;;;;;;;5170907;27;20018;-88
2024/04/23 03:55:51;;;;;;;0.00;0.00;;;;;;;;;;5157560;27;20004;-87
2024/04/23 03:58:16;;;;;;;0.03;0.03;;;;;;;;;;5160547;27;20009;-87
2024/04/23 04:00:42;;;;;;;0.10;0.10;;;;;;;;;;5139437;27;20008;-88
2024/04/23 04:06:06;;;;;;;0.10;0.10;;;;;;;;;;5168514;27;20080;-87
2024/04/23 04:08:33;;;;;;;0.05;0.05;;;0.60;99.90;;;;;;5163221;27;20816;-88
2024/04/23 04:10:59;;;;;;;0.10;0.10;;;;;;;;;;5141111;27;20016;-87
2024/04/23 04:13:25;;;;;;;0.10;0.10;;;;;;;;;;5162579;27;20024;-87
2024/04/23 04:15:51;;;;;;;0.10;0.10;;;;;;;;;;5148918;27;20000;-87
2024/04/23 04:18:17;;;;;;;0.10;0.10;;;;;;;;;;5168985;27;20490;-87
2024/04/23 04:20:43;;;;;;;0.05;0.05;;;;;;;;;;5180893;27;20004;-87
2024/04/23 04:23:09;;;;;;;0.10;0.10;;;;;;;;;;5168392;27;20027;-88
2024/04/23 04:25:34;;;;;;;0.10;0.10;;;0.50;99.90;;;;;;5177098;27;20005;-88
2024/04/23 04:28:00;;;;;;;0.10;0.10;;;;;;;;;;5158594;27;20035;-88
2024/04/23 04:30:26;;;;;;;0.00;0.00;;;;;;;;;;5167621;27;20023;-88
2024/04/23 04:32:52;;;;;;;0.10;0.10;;;;;;;;;;5154573;27;20015;-87
2024/04/23 04:35:18;;;;;;;0.10;0.10;;;0.60;99.90;;;;;;5139617;27;20008;-87
2024/04/23 04:37:44;;;;;;;0.00;0.00;;;0.70;99.90;;;;;;5147391;27;20000;-87
2024/04/23 04:40:10;;;;;;;0.10;0.10;;;0.70;99.90;;;;;;5148637;27;20000;-87
2024/04/23 04:42:36;;;;;;;0.00;0.00;;;;;;;;;;5145870;27;20088;-87
2024/04/23 04:45:02;;;;;;;0.10;0.10;;;;;;;;;;5149167;27;20019;-88
2024/04/23 04:47:28;;;;;;;0.10;0.10;;;;;;;;;;5178767;27;20087;-88
2024/04/23 04:49:54;;;;;;;0.10;0.10;;;;;;;;;;5184714;27;20455;-87
2024/04/23 04:52:19;;;;;;;0.10;0.10;;;;;;;;;;5149565;27;20088;-87
2024/04/23 04:54:45;;;;;;;0.00;0.00;;;;;;;;;;5142010;27;20019;-87
2024/04/23 04:57:11;;;;;;;0.08;0.08;;;;;;;;;;5176937;27;20000;-87
2024/04/23 04:59:37;;;;;;;0.10;0.10;;;;;;;;;;5178501;27;20007;-87
2024/04/23 05:02:03;;;;;;;0.10;0.10;;;;;;;;;;5156019;27;20011;-88
2024/04/23 05:04:29;;;;;;;0.10;0.10;;;;;;;;;;5152227;27;20012;-87
2024/04/23 05:06:55;;;;;;;0.05;0.05;;;;;;;;;;5184105;27;20005;-87
2024/04/23 05:09:21;;;;;;;0.10;0.10;;;;;;;;;;5152256;27;20004;-87
2024/04/23 05:11:47;;;;;;;0.10;0.10;;;;;;;;;;5145872;27;20021;-87
2024/04/23 05:14:13;;;;;;;0.10;0.10;;;;;;;;;;5142700;27;20040;-88
2024/04/23 05:16:43;;;;;;;0.10;0.10;;;;;;;;;;5172964;22;20008;-93
2024/04/23 05:19:09;;;;;;;0.10;0.10;;;;;;;;;;5176336;27;20089;-93
2024/04/23 05:21:35;;;;;;;0.10;0.10;;;;;;;;;;5160849;27;20001;-93
2024/04/23 05:24:01;;;;;;;0.00;0.00;;;;;;;;;;5200152;27;20012;-93
2024/04/23 05:26:27;;;;;;;0.10;0.10;;;;;;;;;;5164923;27;20007;-93
2024/04/23 05:28:53;;;;;;;0.00;0.00;;;;;;;;;;5156825;27;20001;-92
2024/04/23 05:34:04;;;;;;;0.00;0.00;;;;;;;;;;5200661;27;20018;-95
2024/04/23 05:36:30;;;;;;;0.10;0.10;;;;;;;;;;5159725;27;20005;-93
2024/04/23 05:38:59;;;;;;;0.00;0.00;;;;;;;;;;5173503;27;20012;-94
2024/04/23 05:41:25;;;;;;;0.00;0.00;;;;;;;;;;5179206;27;20368;-93
2024/04/23 05:43:52;;;;;;;0.10;0.10;;;;;;;;;;5147773;27;20019;-94
2024/04/23 05:46:18;;;;;;;0.10;0.10;;;;;;;;;;5166906;27;20356;-94
2024/04/23 05:49:21;;;;;;;0.10;0.10;;;1.50;99.90;;;;;;5194153;27;20005;-93
2024/04/23 05:52:25;;;;;;;0.00;0.00;;;1.60;99.90;;;;;;5176721;27;20805;-94
2024/04/23 05:55:28;;;;;;;0.00;0.00;;;1.70;99.90;;;;;;5152408;27;20011;-95
2024/04/23 05:57:54;;;;;;;0.10;0.10;;;;;;;;;;5191236;27;20041;-94
2024/04/23 06:00:20;;;;;;;0.00;0.00;;;;;;;;;;5157001;27;20487;-94
2024/04/23 06:02:46;;;;;;;0.00;0.00;;;;;;;;;;5153906;27;20032;-94
2024/04/23 06:05:12;;;;;;;0.00;0.00;;;;;;;;;;5166875;27;20012;-94
2024/04/23 06:07:38;;;;;;;0.00;0.00;;;;;;;;;;5170690;27;20004;-93
2024/04/23 06:10:04;;;;;;;0.03;0.03;;;;;;;;;;5206663;27;20012;-94
2024/04/23 06:12:30;;;;;;;0.10;0.10;;;;;;;;;;5182180;27;20003;-93
2024/04/23 06:14:56;;;;;;;0.10;0.10;;;;;;;;;;5198838;27;20053;-93
2024/04/23 06:17:34;;;;;;;0.00;0.00;;;;;;;;;;5180497;27;20008;-93
2024/04/23 06:20:00;;;;;;;0.00;0.00;;;;;;;;;;5168494;27;20016;-94
2024/04/23 06:22:27;;;;;;;0.10;0.10;;;2.10;99.90;;;;;;5170303;27;20014;-93
2024/04/23 06:24:55;;;;;;;0.10;0.10;;;;;;;;;;5177829;27;20057;-93
2024/04/23 06:27:21;;;;;;;0.10;0.10;;;;;;;;;;5174611;27;19999;-94
2024/04/23 06:29:47;;;;;;;0.10;0.10;;;;;;;;;;5180962;27;20041;-94
2024/04/23 06:32:14;;;;;;;0.03;0.03;;;;;;;;;;5177087;27;20004;-95
2024/04/23 06:34:40;;;;;;;0.00;0.00;;;;;;;;;;5156777;27;20808;-94
2024/04/23 06:37:06;;;;;;;0.00;0.00;;;;;;;;;;5200951;27;19997;-94
2024/04/23 06:39:32;;;;;;;0.10;0.10;;;;;;;;;;5168946;27;20006;-93
2024/04/23 06:41:58;;;;;;;0.10;0.10;;;;;;;;;;5151131;27;20000;-94
2024/04/23 06:44:24;;;;;;;0.10;0.10;;;;;;;;;;5140766;27;20001;-91
2024/04/23 06:46:50;;;;;;;0.00;0.00;;;;;;;;;;5167616;27;20004;-94
2024/04/23 06:49:16;;;;;;;0.00;0.00;;;;;;;;;;5198730;27;20075;-94
2024/04/23 06:51:42;;;;;;;0.03;0.03;;;;;;;;;;5147452;27;20008;-95
2024/04/23 06:54:08;;;;;;;0.00;0.00;;;;;;;;;;5161104;27;20023;-94
2024/04/23 06:56:34;;;;;;;0.10;0.10;;;;;;;;;;5200151;27;20035;-95
2024/04/23 06:59:10;;;;;;;0.10;0.10;;;;;;;;;;5173389;27;20017;-93
2024/04/23 07:01:44;;;;;;;0.00;0.00;;;;;;;;;;5162057;27;20412;-93
2024/04/23 07:04:11;;;;;;;0.10;0.10;;;;;;;;;;5160835;27;20007;-95
2024/04/23 07:07:00;;;;;;;0.00;0.00;;;;;;;;;;5159080;27;20490;-94
2024/04/23 07:09:29;;;;;;;0.10;0.10;;;;;;;;;;5168802;27;20007;-94
2024/04/23 07:11:58;;;;;;;0.00;0.00;;;;;;;;;;5164350;27;20738;-94
2024/04/23 07:14:24;;;;;;;0.10;0.10;;;;;;;;;;5179413;27;20004;-93
2024/04/23 07:16:50;;;;;;;0.00;0.00;;;;;;;;;;5170428;27;20396;-93
2024/04/23 07:19:16;;;;;;;0.10;0.10;;;;;;;;;;5170688;27;20019;-96
2024/04/23 07:21:42;;;;;;;0.10;0.10;;;;;;;;;;5159146;27;20012;-94
2024/04/23 07:24:08;;;;;;;0.10;0.10;;;;;;;;;;5186054;27;20016;-93
2024/04/23 07:26:34;;;;;;;0.00;0.00;;;;;;;;;;5171775;27;20021;-94
2024/04/23 07:29:05;;;;;;;0.10;0.10;;;;;;;;;;5163224;27;20008;-94
2024/04/23 07:31:44;;;;;;;;;;;;;;;;;;;;;
2024/04/23 07:34:31;;;;;;;0.00;0.00;;;;;;;;;;5186104;27;20008;-94
2024/04/23 07:37:00;;;;;;;0.00;0.00;;;;;;;;;;5206292;27;20015;-94
2024/04/23 07:39:26;;;;;;;0.00;0.00;;;;;;;;;;5152324;27;20024;-94
2024/04/23 07:41:52;;;;;;;0.10;0.10;;;;;;;;;;5144275;27;20005;-94
2024/04/23 07:44:18;;;;;;;0.00;0.00;;;;;;;;;;5155845;27;20053;-94
2024/04/23 07:46:44;;;;;;;0.00;0.00;;;;;;;;;;5187053;27;20005;-95
2024/04/23 07:49:13;;;;;;;0.10;0.10;;;;;;;;;;5167986;27;20018;-94
2024/04/23 07:51:39;;;;;;;0.10;0.10;;;;;;;;;;5172432;27;20018;-94
2024/04/23 07:54:05;;;;;;;0.00;0.00;;;;;;;;;;5163932;27;20359;-93
2024/04/23 07:56:31;;;;;;;0.10;0.10;;;;;;;;;;5178931;27;20004;-93
2024/04/23 07:58:57;;;;;;;0.00;0.00;;;;;;;;;;5159463;27;20020;-95
2024/04/23 08:01:23;;;;;;;0.00;0.00;;;;;;;;;;5154964;27;20023;-94
2024/04/23 08:03:49;;;;;;;0.00;0.00;;;;;;;;;;5202467;27;20004;-94
2024/04/23 08:06:15;;;;;;;0.10;0.10;;;;;;;;;;5173536;27;20001;-94
2024/04/23 08:08:41;;;;;;;0.00;0.00;;;;;;;;;;5170888;27;19996;-95
2024/04/23 08:11:07;;;;;;;0.10;0.10;;;;;;;;;;5164413;27;20018;-94
2024/04/23 08:13:32;;;;;;;0.00;0.00;;;;;;;;;;5162392;27;20001;-96
2024/04/23 08:15:58;;;;;;;0.00;0.00;;;;;;;;;;5173240;27;20004;-94
2024/04/23 08:18:24;;;;;;;0.00;0.00;;;;;;;;;;5169797;27;20009;-96
2024/04/23 08:25:17;;;;;;;0.10;0.10;;;6.20;98.20;;;;;;5195116;27;20000;-95
2024/04/23 08:28:24;;;;;;;0.08;0.08;;;6.20;97.30;;;;;;5184746;27;20012;-95
2024/04/23 08:34:31;;;;;;;;;;;;;;;;;;;;;
2024/04/23 08:37:11;;;;;;;;;;;;;;;;;;;;;
2024/04/23 08:40:23;;;;;;;0.00;0.00;;;5.90;96.70;;;;;;5170364;27;20016;-94
2024/04/23 08:42:52;;;;;;;0.10;0.10;;;5.90;97.30;;;;;;5158507;27;20005;-96
2024/04/23 08:45:22;;;;;;;0.00;0.00;;;6.00;95.60;;;;;;5163807;27;20005;-96
2024/04/23 08:47:48;;;;;;;0.10;0.10;;;;;;;;;;5164841;27;20374;-95
2024/04/23 08:54:29;;;;;;;;;;;;;;;;;;;;;
2024/04/23 08:57:28;;;;;;;0.10;0.10;;;6.60;94.00;;;;;;5155765;27;20004;-94
2024/04/23 09:09:47;;;;;;;0.10;0.10;;;;;;;;;;5129326;27;20053;-96
2024/04/23 09:12:18;;;;;;;0.00;0.00;;;6.80;95.20;;;;;;5166036;27;20016;-95
2024/04/23 09:14:48;;;;;;;0.10;0.10;;;;;;;;;;5159228;27;20029;-96
2024/04/23 09:17:22;;;;;;;0.10;0.10;;;;;;;;;;5155220;27;19997;-96
2024/04/23 09:19:48;;;;;;;0.10;0.10;;;;;;;;;;5158937;27;20032;-96
2024/04/23 09:22:14;;;;;;;0.00;0.00;;;;;;;;;;5192820;27;20005;-95
2024/04/23 09:24:40;;;;;;;0.05;0.05;;;;;;;;;;5192498;27;20000;-94
2024/04/23 14:05:03;;;;;;;0.00;0.00;;;;;;;;;;5181603;27;20012;-93
2024/04/23 14:07:29;;;;;;;0.00;0.00;;;;;;;;;;5140385;27;20007;-92
2024/04/23 14:09:55;;;;;;;0.00;0.00;;;;;;;;;;5146698;27;20009;-93
2024/04/23 14:12:23;;;;;;;0.00;0.00;;;;;;;;;;5178467;27;20000;-93
2024/04/23 14:14:49;;;;;;;0.00;0.00;;;;;;;;;;5150700;27;20013;-92
2024/04/23 14:17:15;;;;;;;0.00;0.00;;;;;;;;;;5152149;27;20000;-92
2024/04/23 14:19:40;;;;;;;0.00;0.00;;;;;;;;;;5152540;27;20014;-91
2024/04/23 14:22:13;;;;;;;0.00;0.00;;;;;;;;;;5144013;27;20004;-93
2024/04/23 14:24:41;;;;;;;0.00;0.00;;;;;;;;;;5155150;27;20015;-92
2024/04/23 14:27:07;;;;;;;0.00;0.00;;;;;;;;;;5162153;27;20477;-92
2024/04/23 14:29:33;;;;;;;0.00;0.00;;;;;;;;;;5149485;27;20008;-92
2024/04/23 14:31:59;;;;;;;0.00;0.00;;;;;;;;;;5149869;27;20023;-93
2024/04/23 14:34:26;;;;;;;0.00;0.00;;;;;;;;;;5149009;27;20000;-93
2024/04/23 14:36:56;;;;;;;0.00;0.00;;;;;;;;;;5171449;27;20009;-93
2024/04/23 14:39:22;;;;;;;0.00;0.00;;;;;;;;;;5147072;27;20004;-92
2024/04/23 14:41:47;;;;;;;0.00;0.00;;;;;;;;;;5152534;27;20019;-92
2024/04/23 14:44:14;;;;;;;0.00;0.00;;;;;;;;;;5145202;27;20016;-92
2024/04/23 14:46:40;;;;;;;0.00;0.00;;;;;;;;;;5151315;27;20342;-93
2024/04/23 14:49:07;;;;;;;0.00;0.00;;;;;;;;;;5152352;27;20347;-93
2024/04/23 14:51:32;;;;;;;0.00;0.00;;;;;;;;;;5154836;27;20135;-92
2024/04/23 14:53:58;;;;;;;0.00;0.00;;;;;;;;;;5178846;27;20479;-92
2024/04/23 14:56:24;;;;;;;0.00;0.00;;;;;;;;;;5155275;27;20031;-92
2024/04/23 14:58:51;;;;;;;0.00;0.00;;;12.10;80.90;;;;;;5182314;27;20004;-93
2024/04/23 15:01:17;;;;;;;0.00;0.00;;;;;;;;;;5147718;27;20496;-93
2024/04/23 15:03:43;;;;;;;0.00;0.00;;;;;;;;;;5149356;27;20005;-92
2024/04/23 15:06:10;;;;;;;0.00;0.00;;;11.70;78.10;;;;;;5148545;27;20351;-92
2024/04/23 15:08:39;;;;;;;0.00;0.00;;;12.00;80.10;;;;;;5154196;27;20014;-94
2024/04/23 15:11:06;;;;;;;0.00;0.00;;;12.10;79.00;;;;;;5151829;27;20048;-92
2024/04/23 15:13:32;;;;;;;0.00;0.00;;;;;;;;;;5148899;27;20004;-93
2024/04/23 15:15:59;;;;;;;0.00;0.00;;;;;;;;;;5148529;27;20013;-92
2024/04/23 15:18:25;;;;;;;0.00;0.00;;;;;;;;;;5155227;27;20040;-92
2024/04/23 15:20:51;;;;;;;0.00;0.00;;;;;;;;;;5148766;27;20004;-93
2024/04/23 15:23:17;;;;;;;0.00;0.00;;;;;;;;;;5152087;27;20005;-93
2024/04/23 15:25:43;;;;;;;0.00;0.00;;;;;;;;;;5156255;27;20008;-93
2024/04/23 15:28:09;;;;;;;0.00;0.00;;;;;;;;;;5179843;27;20082;-93
2024/04/23 15:30:35;;;;;;;0.00;0.00;;;;;;;;;;5141034;27;20036;-93
2024/04/23 15:33:01;;;;;;;0.00;0.00;;;;;;;;;;5140139;27;20004;-92
2024/04/23 15:35:28;;;;;;;0.00;0.00;;;;;;;;;;5144975;27;20019;-93
2024/04/23 15:37:54;;;;;;;0.00;0.00;;;;;;;;;;5154276;27;20012;-93
2024/04/23 15:40:20;;;;;;;0.00;0.00;;;;;;;;;;5174662;27;20352;-91
2024/04/23 15:42:48;;;;;;;0.00;0.00;;;;;;;;;;5148261;27;20008;-93
2024/04/23 15:45:14;;;;;;;0.00;0.00;;;;;;;;;;5151604;27;20004;-91
2024/04/23 15:47:40;;;;;;;0.00;0.00;;;;;;;;;;5160202;27;20000;-92
2024/04/23 15:50:06;;;;;;;0.00;0.00;;;;;;;;;;5154858;27;20001;-92
2024/04/23 15:52:32;;;;;;;0.00;0.00;;;11.90;79.60;;;;;;5150272;27;20000;-93
2024/04/23 15:54:58;;;;;;;0.00;0.00;;;;;;;;;;5146077;27;20028;-92
2024/04/23 15:57:24;;;;;;;0.00;0.00;;;;;;;;;;5149763;27;20005;-92
2024/04/23 15:59:50;;;;;;;0.00;0.00;;;;;;;;;;5159122;27;20056;-93
2024/04/23 16:02:19;;;;;;;0.00;0.00;;;;;;;;;;5180948;27;20470;-92
2024/04/23 16:04:45;;;;;;;0.00;0.00;;;;;;;;;;5157813;27;20016;-93
2024/04/23 16:07:11;;;;;;;0.00;0.00;;;;;;;;;;5165705;27;20019;-92
2024/04/23 16:09:38;;;;;;;0.00;0.00;;;;;;;;;;5150099;27;20008;-92
2024/04/23 16:12:04;;;;;;;0.00;0.00;;;;;;;;;;5150612;27;20004;-92
2024/04/23 16:14:30;;;;;;;0.00;0.00;;;;;;;;;;5159472;27;20001;-92
2024/04/23 16:16:56;;;;;;;0.00;0.00;;;;;;;;;;5145811;27;20459;-92
2024/04/23 16:19:23;;;;;;;0.00;0.00;;;;;;;;;;5175692;27;20017;-92
2024/04/23 16:21:50;;;;;;;0.00;0.00;;;;;;;;;;5154035;27;20008;-93
2024/04/23 16:24:16;;;;;;;0.00;0.00;;;;;;;;;;5152255;27;20367;-93
2024/04/23 16:26:42;;;;;;;0.00;0.00;;;;;;;;;;5148202;27;20012;-93
2024/04/23 16:29:08;;;;;;;0.00;0.00;;;;;;;;;;5150783;27;20109;-93
2024/04/23 16:31:34;;;;;;;0.00;0.00;;;;;;;;;;5147893;27;20008;-93
2024/04/23 16:34:00;;;;;;;0.00;0.00;;;;;;;;;;5148589;27;20008;-93
2024/04/23 16:36:27;;;;;;;0.00;0.00;;;;;;;;;;5147991;27;20083;-93
2024/04/23 16:38:55;;;;;;;0.00;0.00;;;;;;;;;;5146382;27;20353;-92
2024/04/23 16:41:21;;;;;;;0.00;0.00;;;;;;;;;;5171559;27;20057;-93
2024/04/23 16:43:47;;;;;;;0.00;0.00;;;;;;;;;;5176412;27;20009;-92
2024/04/23 16:46:13;;;;;;;0.00;0.00;;;;;;;;;;5156497;27;20015;-93
2024/04/23 16:48:42;;;;;;;0.00;0.00;;;11.30;82.90;;;;;;5151115;27;20507;-93
2024/04/23 16:51:09;;;;;;;0.00;0.00;;;12.00;82.50;;;;;;5156289;27;20012;-93
2024/04/23 16:53:38;;;;;;;0.00;0.00;;;;;;;;;;5151599;27;20005;-92
2024/04/23 16:56:16;;;;;;;0.00;0.00;;;11.40;81.70;;;;;;5116923;27;20005;-93
2024/04/23 16:58:42;;;;;;;0.00;0.00;;;;;;;;;;5140138;27;20010;-91
2024/04/23 17:01:08;;;;;;;0.00;0.00;;;;;;;;;;5142056;27;20016;-92
2024/04/23 17:03:35;;;;;;;0.00;0.00;;;;;;;;;;5147767;27;20004;-92
2024/04/23 17:06:01;;;;;;;0.00;0.00;;;;;;;;;;5153252;27;20000;-94
2024/04/23 17:08:28;;;;;;;0.00;0.00;;;11.10;83.70;;;;;;5143534;27;20004;-92
2024/04/23 17:10:59;;;;;;;0.00;0.00;;;11.00;83.70;;;;;;5144734;27;20004;-92
2024/04/23 17:13:25;;;;;;;0.00;0.00;;;;;;;;;;5154459;27;20000;-93
2024/04/23 17:15:51;;;;;;;0.00;0.00;;;;;;;;;;5156407;27;20004;-92
2024/04/23 17:18:17;;;;;;;0.00;0.00;;;;;;;;;;5146017;27;20019;-94
2024/04/23 17:20:43;;;;;;;0.00;0.00;;;;;;;;;;5153778;27;20832;-92
2024/04/23 17:23:09;;;;;;;0.00;0.00;;;;;;;;;;5145087;27;20053;-93
2024/04/23 17:25:38;;;;;;;0.00;0.00;;;10.60;83.20;;;;;;5139699;27;20019;-93
2024/04/23 17:28:04;;;;;;;0.00;0.00;;;;;;;;;;5144987;27;20009;-92
2024/04/23 17:30:30;;;;;;;0.00;0.00;;;;;;;;;;5143159;27;20029;-92
2024/04/23 17:32:56;;;;;;;0.00;0.00;;;;;;;;;;5153235;27;20005;-92
2024/04/23 17:35:22;;;;;;;0.00;0.00;;;;;;;;;;5153575;27;20391;-91
2024/04/23 17:37:49;;;;;;;0.00;0.00;;;;;;;;;;5154605;27;20492;-92
2024/04/23 17:40:15;;;;;;;0.00;0.00;;;;;;;;;;5155903;27;20008;-93
2024/04/23 17:42:41;;;;;;;0.00;0.00;;;;;;;;;;5141676;27;20470;-91
2024/04/23 17:45:08;;;;;;;0.00;0.00;;;;;;;;;;5181505;27;20015;-93
2024/04/23 17:47:34;;;;;;;0.00;0.00;;;;;;;;;;5167856;27;20351;-92
2024/04/23 17:50:03;;;;;;;0.00;0.00;;;;;;;;;;5172587;27;20040;-91
2024/04/23 17:52:30;;;;;;;0.00;0.00;;;;;;;;;;5148031;27;20415;-91
2024/04/23 17:54:56;;;;;;;0.00;0.00;;;;;;;;;;5164999;27;20005;-92
2024/04/23 17:57:22;;;;;;;0.00;0.00;;;;;;;;;;5175180;27;20004;-92
2024/04/23 17:59:48;;;;;;;0.00;0.00;;;;;;;;;;5147180;27;20016;-93
2024/04/23 18:02:14;;;;;;;0.00;0.00;;;;;;;;;;5167249;27;20447;-91
2024/04/23 18:04:40;;;;;;;0.00;0.00;;;;;;;;;;5145335;27;20001;-92
2024/04/23 18:07:06;;;;;;;0.00;0.00;;;;;;;;;;5167507;27;20432;-91
2024/04/23 18:09:32;;;;;;;0.00;0.00;;;;;;;;;;5150719;27;20337;-92
2024/04/23 18:11:58;;;;;;;0.00;0.00;;;;;;;;;;5151192;27;20016;-90
2024/04/23 18:14:24;;;;;;;0.00;0.00;;;;;;;;;;5160046;27;20533;-91
2024/04/23 18:16:49;;;;;;;0.10;0.10;;;;;;;;;;5156471;27;20020;-92
2024/04/23 18:19:17;;;;;;;0.00;0.00;;;;;;;;;;5162481;27;20009;-92
2024/04/23 18:21:42;;;;;;;0.00;0.00;;;;;;;;;;5168123;27;20004;-93
2024/04/23 18:24:10;;;;;;;0.00;0.00;;;;;;;;;;5170732;27;20024;-92
2024/04/23 18:26:36;;;;;;;0.00;0.00;;;;;;;;;;5147814;27;20014;-92
2024/04/23 18:29:02;;;;;;;0.03;0.03;;;;;;;;;;5152784;27;20016;-92
2024/04/23 18:31:28;;;;;;;0.10;0.10;;;;;;;;;;5155927;27;20017;-94
2024/04/23 18:33:53;;;;;;;0.10;0.10;;;;;;;;;;5183655;27;20005;-91
2024/04/23 18:36:19;;;;;;;0.10;0.10;;;;;;;;;;5177292;27;20040;-92
2024/04/23 18:38:45;;;;;;;0.00;0.00;;;;;;;;;;5164501;27;20028;-91
2024/04/23 18:41:12;;;;;;;0.00;0.00;;;;;;;;;;5165915;27;20000;-92
2024/04/23 18:43:38;;;;;;;0.10;0.10;;;;;;;;;;5147878;27;20364;-91
2024/04/23 18:46:10;;;;;;;0.00;0.00;;;8.80;91.20;;;;;;5138313;27;20020;-91
2024/04/23 18:48:36;;;;;;;0.10;0.10;;;;;;;;;;5144402;27;20074;-94
2024/04/23 18:51:03;;;;;;;0.00;0.00;;;;;;;;;;5165084;27;20020;-92
2024/04/23 18:53:29;;;;;;;0.10;0.10;;;;;;;;;;5167571;27;19996;-92
2024/04/23 18:55:55;;;;;;;0.10;0.10;;;;;;;;;;5179483;27;20004;-93
2024/04/23 18:58:21;;;;;;;0.00;0.00;;;;;;;;;;5166883;27;20001;-93
2024/04/23 19:00:47;;;;;;;0.10;0.10;;;;;;;;;;5143020;27;20020;-91
2024/04/23 19:03:13;;;;;;;0.05;0.05;;;;;;;;;;5164038;27;20001;-91
2024/04/23 19:05:39;;;;;;;0.00;0.00;;;;;;;;;;5147434;27;20707;-90
2024/04/23 19:08:05;;;;;;;0.10;0.10;;;;;;;;;;5167670;27;21030;-92
2024/04/23 19:10:31;;;;;;;0.00;0.00;;;;;;;;;;5148377;27;20015;-92
2024/04/23 19:12:57;;;;;;;0.10;0.10;;;;;;;;;;5169929;27;20398;-93
2024/04/23 19:15:23;;;;;;;0.00;0.00;;;;;;;;;;5174076;27;20028;-92
2024/04/23 19:17:49;;;;;;;0.10;0.10;;;;;;;;;;5150639;27;20453;-91
2024/04/23 19:20:15;;;;;;;0.10;0.10;;;;;;;;;;5168119;27;20004;-93
2024/04/23 19:22:41;;;;;;;0.10;0.10;;;;;;;;;;5140506;27;20005;-92
2024/04/23 19:25:07;;;;;;;0.10;0.10;;;;;;;;;;5172048;27;20367;-92
2024/04/23 19:27:34;;;;;;;0.10;0.10;;;;;;;;;;5167130;27;20004;-91
2024/04/23 19:30:00;;;;;;;0.10;0.10;;;;;;;;;;5144689;27;20008;-93
2024/04/23 19:32:29;;;;;;;0.00;0.00;;;;;;;;;;5138322;27;20421;-91